sensor_id;sensor_type;location;lat;lon;timestamp;pressure;altitude;pressure_sealevel;temperature;humidity
55456;BME280;63021;52.836;6.376;2022-12-07T00:01:37;101771.28;;;3.50;81.51
55456;BME280;63021;52.836;6.376;2022-12-07T00:04:04;101766.84;;;3.50;81.08
55456;BME280;63021;52.836;6.376;2022-12-07T00:08:57;101767.09;;;3.45;81.83
55456;BME280;63021;52.836;6.376;2022-12-07T00:11:23;101764.47;;;3.45;81.78
55456;BME280;63021;52.836;6.376;2022-12-07T00:13:54;101761.91;;;3.44;81.86
55456;BME280;63021;52.836;6.376;2022-12-07T00:16:22;101764.63;;;3.42;81.98
55456;BME280;63021;52.836;6.376;2022-12-07T00:18:48;101751.56;;;3.41;81.43
55456;BME280;63021;52.836;6.376;2022-12-07T00:23:43;101760.38;;;3.40;81.20
55456;BME280;63021;52.836;6.376;2022-12-07T00:26:18;101760.53;;;3.37;81.82
55456;BME280;63021;52.836;6.376;2022-12-07T00:28:48;101758.81;;;3.36;81.98
55456;BME280;63021;52.836;6.376;2022-12-07T00:31:14;101764.16;;;3.34;81.91
55456;BME280;63021;52.836;6.376;2022-12-07T00:33:41;101763.47;;;3.31;82.19
55456;BME280;63021;52.836;6.376;2022-12-07T00:36:11;101759.97;;;3.30;81.82
55456;BME280;63021;52.836;6.376;2022-12-07T00:38:38;101759.13;;;3.29;82.06
55456;BME280;63021;52.836;6.376;2022-12-07T00:41:24;101763.59;;;3.27;81.96
55456;BME280;63021;52.836;6.376;2022-12-07T00:43:50;101755.03;;;3.24;81.72
55456;BME280;63021;52.836;6.376;2022-12-07T00:46:17;101760.28;;;3.24;82.27
55456;BME280;63021;52.836;6.376;2022-12-07T00:48:42;101750.69;;;3.23;82.12
55456;BME280;63021;52.836;6.376;2022-12-07T00:51:10;101748.94;;;3.23;82.50
55456;BME280;63021;52.836;6.376;2022-12-07T00:53:36;101748.94;;;3.23;81.86
55456;BME280;63021;52.836;6.376;2022-12-07T00:56:11;101745.34;;;3.24;82.27
55456;BME280;63021;52.836;6.376;2022-12-07T00:58:37;101743.50;;;3.26;81.47
55456;BME280;63021;52.836;6.376;2022-12-07T01:01:04;101737.28;;;3.27;81.94
55456;BME280;63021;52.836;6.376;2022-12-07T01:03:30;101730.34;;;3.26;81.42
55456;BME280;63021;52.836;6.376;2022-12-07T01:05:56;101728.47;;;3.28;81.79
55456;BME280;63021;52.836;6.376;2022-12-07T01:08:23;101721.38;;;3.31;81.58
55456;BME280;63021;52.836;6.376;2022-12-07T01:10:49;101722.88;;;3.35;81.89
55456;BME280;63021;52.836;6.376;2022-12-07T01:13:15;101723.69;;;3.37;81.54
55456;BME280;63021;52.836;6.376;2022-12-07T01:15:42;101731.34;;;3.41;82.09
55456;BME280;63021;52.836;6.376;2022-12-07T01:18:08;101730.34;;;3.44;81.86
55456;BME280;63021;52.836;6.376;2022-12-07T01:20:34;101732.97;;;3.44;82.33
55456;BME280;63021;52.836;6.376;2022-12-07T01:23:00;101742.41;;;3.48;81.14
55456;BME280;63021;52.836;6.376;2022-12-07T01:25:25;101739.78;;;3.48;81.95
55456;BME280;63021;52.836;6.376;2022-12-07T01:27:50;101742.41;;;3.48;81.14
55456;BME280;63021;52.836;6.376;2022-12-07T01:30:16;101738.16;;;3.45;81.53
55456;BME280;63021;52.836;6.376;2022-12-07T01:32:41;101747.75;;;3.46;81.44
55456;BME280;63021;52.836;6.376;2022-12-07T01:35:07;101742.56;;;3.45;81.28
55456;BME280;63021;52.836;6.376;2022-12-07T01:37:36;101741.69;;;3.44;81.65
55456;BME280;63021;52.836;6.376;2022-12-07T01:40:06;101735.69;;;3.42;81.62
55456;BME280;63021;52.836;6.376;2022-12-07T01:42:33;101732.25;;;3.40;82.00
55456;BME280;63021;52.836;6.376;2022-12-07T01:47:46;101732.41;;;3.37;81.07
55456;BME280;63021;52.836;6.376;2022-12-07T01:50:12;101739.63;;;3.34;81.54
55456;BME280;63021;52.836;6.376;2022-12-07T01:52:39;101739.72;;;3.32;80.95
55456;BME280;63021;52.836;6.376;2022-12-07T01:55:12;101749.44;;;3.30;81.54
55456;BME280;63021;52.836;6.376;2022-12-07T01:57:48;101747.81;;;3.27;80.76
55456;BME280;63021;52.836;6.376;2022-12-07T02:00:15;101742.78;;;3.23;81.56
55456;BME280;63021;52.836;6.376;2022-12-07T02:02:54;101749.06;;;3.20;80.98
55456;BME280;63021;52.836;6.376;2022-12-07T02:05:21;101749.38;;;3.14;80.72
55456;BME280;63021;52.836;6.376;2022-12-07T02:07:48;101743.19;;;3.15;80.70
55456;BME280;63021;52.836;6.376;2022-12-07T02:10:18;101741.56;;;3.12;81.60
55456;BME280;63021;52.836;6.376;2022-12-07T02:12:48;101739.91;;;3.10;81.52
55456;BME280;63021;52.836;6.376;2022-12-07T02:15:14;101735.66;;;3.07;81.24
55456;BME280;63021;52.836;6.376;2022-12-07T02:17:52;101735.75;;;3.06;80.86
55456;BME280;63021;52.836;6.376;2022-12-07T02:28:29;101721.50;;;2.92;80.85
55456;BME280;63021;52.836;6.376;2022-12-07T02:30:59;101718.88;;;2.92;80.90
55456;BME280;63021;52.836;6.376;2022-12-07T02:33:40;101711.22;;;2.88;81.79
55456;BME280;63021;52.836;6.376;2022-12-07T02:36:16;101721.50;;;2.92;81.59
55456;BME280;63021;52.836;6.376;2022-12-07T02:38:50;101720.59;;;2.93;81.39
55456;BME280;63021;52.836;6.376;2022-12-07T02:41:30;101721.50;;;2.92;81.47
55456;BME280;63021;52.836;6.376;2022-12-07T02:44:00;101735.50;;;2.93;81.54
55456;BME280;63021;52.836;6.376;2022-12-07T02:46:30;101731.09;;;2.93;80.84
55456;BME280;63021;52.836;6.376;2022-12-07T02:48:58;101732.81;;;2.94;81.81
55456;BME280;63021;52.836;6.376;2022-12-07T02:51:30;101737.13;;;2.95;80.93
55456;BME280;63021;52.836;6.376;2022-12-07T02:53:56;101731.78;;;2.97;81.25
55456;BME280;63021;52.836;6.376;2022-12-07T02:56:41;101726.53;;;2.97;81.32
55456;BME280;63021;52.836;6.376;2022-12-07T03:18:49;101699.94;;;3.03;81.11
55456;BME280;63021;52.836;6.376;2022-12-07T03:21:19;101694.59;;;3.05;81.74
55456;BME280;63021;52.836;6.376;2022-12-07T03:23:50;101708.44;;;3.08;81.97
55456;BME280;63021;52.836;6.376;2022-12-07T03:26:18;101704.03;;;3.09;81.35
55456;BME280;63021;52.836;6.376;2022-12-07T03:28:50;101702.16;;;3.11;81.57
55456;BME280;63021;52.836;6.376;2022-12-07T03:31:25;101700.47;;;3.10;82.03
55456;BME280;63021;52.836;6.376;2022-12-07T03:36:50;101701.34;;;3.10;81.56
55456;BME280;63021;52.836;6.376;2022-12-07T03:41:50;101700.53;;;3.08;81.14
55456;BME280;63021;52.836;6.376;2022-12-07T03:44:16;101692.88;;;3.04;81.46
55456;BME280;63021;52.836;6.376;2022-12-07T03:47:16;101699.84;;;3.05;80.80
55456;BME280;63021;52.836;6.376;2022-12-07T03:52:54;101697.38;;;3.02;81.11
55456;BME280;63021;52.836;6.376;2022-12-07T03:55:25;101693.19;;;2.98;81.50
55456;BME280;63021;52.836;6.376;2022-12-07T03:57:55;101694.13;;;2.97;81.76
55456;BME280;63021;52.836;6.376;2022-12-07T04:00:22;101700.31;;;2.95;81.51
55456;BME280;63021;52.836;6.376;2022-12-07T04:02:47;101695.19;;;2.92;80.93
55456;BME280;63021;52.836;6.376;2022-12-07T04:05:13;101695.19;;;2.92;81.26
55456;BME280;63021;52.836;6.376;2022-12-07T04:07:38;101690.09;;;2.89;81.55
55456;BME280;63021;52.836;6.376;2022-12-07T04:10:05;101697.16;;;2.89;80.95
55456;BME280;63021;52.836;6.376;2022-12-07T04:12:30;101699.91;;;2.86;81.03
55456;BME280;63021;52.836;6.376;2022-12-07T04:14:56;101700.78;;;2.86;81.27
55456;BME280;63021;52.836;6.376;2022-12-07T04:17:21;101699.06;;;2.85;81.07
55456;BME280;63021;52.836;6.376;2022-12-07T04:19:46;101696.75;;;2.79;81.44
55456;BME280;63021;52.836;6.376;2022-12-07T04:22:12;101696.66;;;2.81;81.12
55456;BME280;63021;52.836;6.376;2022-12-07T04:24:37;101690.63;;;2.78;81.41
55456;BME280;63021;52.836;6.376;2022-12-07T04:27:03;101691.56;;;2.77;81.59
55456;BME280;63021;52.836;6.376;2022-12-07T04:29:29;101695.88;;;2.78;81.59
55456;BME280;63021;52.836;6.376;2022-12-07T04:31:54;101689.84;;;2.76;80.89
55456;BME280;63021;52.836;6.376;2022-12-07T04:34:20;101690.00;;;2.73;81.44
55456;BME280;63021;52.836;6.376;2022-12-07T04:36:46;101696.19;;;2.72;81.44
55456;BME280;63021;52.836;6.376;2022-12-07T04:39:38;101697.03;;;2.73;80.83
55456;BME280;63021;52.836;6.376;2022-12-07T04:42:03;101693.63;;;2.71;81.42
55456;BME280;63021;52.836;6.376;2022-12-07T04:44:29;101685.81;;;2.69;81.23
55456;BME280;63021;52.836;6.376;2022-12-07T04:46:55;101694.53;;;2.70;80.79
55456;BME280;63021;52.836;6.376;2022-12-07T04:49:21;101682.47;;;2.66;80.81
55456;BME280;63021;52.836;6.376;2022-12-07T04:51:46;101685.81;;;2.69;81.68
55456;BME280;63021;52.836;6.376;2022-12-07T04:54:13;101684.81;;;2.72;81.73
55456;BME280;63021;52.836;6.376;2022-12-07T04:56:38;101688.13;;;2.75;81.72
55456;BME280;63021;52.836;6.376;2022-12-07T04:59:05;101686.31;;;2.77;80.78
55456;BME280;63021;52.836;6.376;2022-12-07T05:01:31;101676.63;;;2.78;81.54
55456;BME280;63021;52.836;6.376;2022-12-07T05:03:57;101681.81;;;2.80;80.85
55456;BME280;63021;52.836;6.376;2022-12-07T05:06:22;101686.84;;;2.84;81.55
55456;BME280;63021;52.836;6.376;2022-12-07T05:08:48;101679.88;;;2.83;81.70
55456;BME280;63021;52.836;6.376;2022-12-07T05:11:13;101679.88;;;2.83;81.22
55456;BME280;63021;52.836;6.376;2022-12-07T05:13:59;101686.84;;;2.84;80.81
55456;BME280;63021;52.836;6.376;2022-12-07T05:16:24;101672.06;;;2.82;80.81
55456;BME280;63021;52.836;6.376;2022-12-07T05:18:50;101669.50;;;2.80;81.01
55456;BME280;63021;52.836;6.376;2022-12-07T05:21:15;101674.84;;;2.78;81.12
55456;BME280;63021;52.836;6.376;2022-12-07T05:23:41;101664.47;;;2.75;81.65
55456;BME280;63021;52.836;6.376;2022-12-07T05:26:06;101671.44;;;2.76;80.70
55456;BME280;63021;52.836;6.376;2022-12-07T05:28:31;101671.53;;;2.75;81.07
55456;BME280;63021;52.836;6.376;2022-12-07T05:30:57;101672.53;;;2.72;80.93
55456;BME280;63021;52.836;6.376;2022-12-07T05:33:22;101677.94;;;2.69;81.17
55456;BME280;63021;52.836;6.376;2022-12-07T05:35:47;101681.56;;;2.67;80.65
55456;BME280;63021;52.836;6.376;2022-12-07T05:38:13;101670.28;;;2.65;81.47
55456;BME280;63021;52.836;6.376;2022-12-07T05:40:38;101669.47;;;2.63;80.92
55456;BME280;63021;52.836;6.376;2022-12-07T05:43:04;101673.81;;;2.64;81.64
55456;BME280;63021;52.836;6.376;2022-12-07T05:45:29;101674.91;;;2.59;80.95
55456;BME280;63021;52.836;6.376;2022-12-07T05:47:54;101670.47;;;2.60;80.89
55456;BME280;63021;52.836;6.376;2022-12-07T05:50:20;101669.63;;;2.59;81.47
55456;BME280;63021;52.836;6.376;2022-12-07T05:52:45;101663.69;;;2.56;81.86
55456;BME280;63021;52.836;6.376;2022-12-07T05:55:10;101659.44;;;2.53;81.60
55456;BME280;63021;52.836;6.376;2022-12-07T05:57:36;101656.81;;;2.53;81.24
55456;BME280;63021;52.836;6.376;2022-12-07T06:00:03;101673.34;;;2.55;81.21
55456;BME280;63021;52.836;6.376;2022-12-07T06:02:28;101670.88;;;2.52;81.33
55456;BME280;63021;52.836;6.376;2022-12-07T06:04:54;101675.13;;;2.55;81.29
55456;BME280;63021;52.836;6.376;2022-12-07T06:07:19;101665.59;;;2.52;81.56
55456;BME280;63021;52.836;6.376;2022-12-07T06:09:45;101662.13;;;2.52;81.17
55456;BME280;63021;52.836;6.376;2022-12-07T06:12:13;101667.31;;;2.53;81.38
55456;BME280;63021;52.836;6.376;2022-12-07T06:14:58;101666.41;;;2.54;81.74
55456;BME280;63021;52.836;6.376;2022-12-07T06:17:23;101665.53;;;2.54;81.03
55456;BME280;63021;52.836;6.376;2022-12-07T06:19:49;101666.44;;;2.53;81.15
55456;BME280;63021;52.836;6.376;2022-12-07T06:22:15;101670.78;;;2.54;81.39
55456;BME280;63021;52.836;6.376;2022-12-07T06:24:41;101675.13;;;2.55;81.05
55456;BME280;63021;52.836;6.376;2022-12-07T06:27:07;101678.59;;;2.55;81.23
55456;BME280;63021;52.836;6.376;2022-12-07T06:29:33;101678.53;;;2.57;82.01
55456;BME280;63021;52.836;6.376;2022-12-07T06:31:58;101670.63;;;2.57;81.21
55456;BME280;63021;52.836;6.376;2022-12-07T06:34:24;101662.66;;;2.58;80.79
55456;BME280;63021;52.836;6.376;2022-12-07T06:36:51;101672.19;;;2.61;81.80
55456;BME280;63021;52.836;6.376;2022-12-07T06:39:19;101663.22;;;2.65;81.19
55456;BME280;63021;52.836;6.376;2022-12-07T06:41:45;101676.31;;;2.67;81.75
55456;BME280;63021;52.836;6.376;2022-12-07T06:44:11;101667.56;;;2.66;81.95
55456;BME280;63021;52.836;6.376;2022-12-07T06:46:36;101674.53;;;2.67;81.29
55456;BME280;63021;52.836;6.376;2022-12-07T06:49:02;101664.06;;;2.66;81.12
55456;BME280;63021;52.836;6.376;2022-12-07T06:51:28;101680.63;;;2.68;80.82
55456;BME280;63021;52.836;6.376;2022-12-07T06:53:53;101679.00;;;2.65;81.13
55456;BME280;63021;52.836;6.376;2022-12-07T06:56:19;101678.25;;;2.63;81.62
55456;BME280;63021;52.836;6.376;2022-12-07T06:58:45;101679.00;;;2.65;81.00
55456;BME280;63021;52.836;6.376;2022-12-07T07:01:14;101687.81;;;2.64;81.06
55456;BME280;63021;52.836;6.376;2022-12-07T07:03:40;101690.44;;;2.64;81.10
55456;BME280;63021;52.836;6.376;2022-12-07T07:06:06;101680.88;;;2.63;81.71
55456;BME280;63021;52.836;6.376;2022-12-07T07:08:36;101686.97;;;2.64;81.20
55456;BME280;63021;52.836;6.376;2022-12-07T07:11:01;101687.81;;;2.64;81.87
55456;BME280;63021;52.836;6.376;2022-12-07T07:13:27;101689.44;;;2.67;80.77
55456;BME280;63021;52.836;6.376;2022-12-07T07:15:53;101685.06;;;2.67;81.32
55456;BME280;63021;52.836;6.376;2022-12-07T07:18:19;101686.75;;;2.68;81.20
55456;BME280;63021;52.836;6.376;2022-12-07T07:20:44;101690.25;;;2.69;81.03
55456;BME280;63021;52.836;6.376;2022-12-07T07:23:09;101682.28;;;2.70;81.55
55456;BME280;63021;52.836;6.376;2022-12-07T07:25:35;101692.72;;;2.72;81.54
55456;BME280;63021;52.836;6.376;2022-12-07T07:28:01;101691.00;;;2.71;80.42
55456;BME280;63021;52.836;6.376;2022-12-07T07:30:26;101691.06;;;2.69;80.90
55456;BME280;63021;52.836;6.376;2022-12-07T07:32:58;101695.50;;;2.69;80.92
55456;BME280;63021;52.836;6.376;2022-12-07T07:35:25;101688.53;;;2.68;81.63
55456;BME280;63021;52.836;6.376;2022-12-07T07:37:51;101695.56;;;2.67;81.60
55456;BME280;63021;52.836;6.376;2022-12-07T07:40:17;101719.28;;;2.66;80.79
55456;BME280;63021;52.836;6.376;2022-12-07T07:42:55;101735.06;;;2.66;81.29
55456;BME280;63021;52.836;6.376;2022-12-07T07:45:22;101737.75;;;2.64;80.71
55456;BME280;63021;52.836;6.376;2022-12-07T07:47:48;101739.47;;;2.65;80.65
55456;BME280;63021;52.836;6.376;2022-12-07T07:50:14;101729.03;;;2.64;81.03
55456;BME280;63021;52.836;6.376;2022-12-07T07:52:39;101725.50;;;2.65;80.78
55456;BME280;63021;52.836;6.376;2022-12-07T07:55:05;101697.34;;;2.67;81.53
55456;BME280;63021;52.836;6.376;2022-12-07T07:57:31;101693.72;;;2.69;81.27
55456;BME280;63021;52.836;6.376;2022-12-07T07:59:56;101691.84;;;2.71;80.81
55456;BME280;63021;52.836;6.376;2022-12-07T08:02:21;101695.19;;;2.75;81.52
55456;BME280;63021;52.836;6.376;2022-12-07T08:04:47;101691.63;;;2.76;81.48
55456;BME280;63021;52.836;6.376;2022-12-07T08:07:14;101695.78;;;2.80;81.72
55456;BME280;63021;52.836;6.376;2022-12-07T08:09:39;101696.59;;;2.82;81.48
55456;BME280;63021;52.836;6.376;2022-12-07T08:12:05;101700.94;;;2.83;81.03
55456;BME280;63021;52.836;6.376;2022-12-07T08:14:31;101690.25;;;2.86;80.74
55456;BME280;63021;52.836;6.376;2022-12-07T08:16:56;101698.91;;;2.88;82.12
55456;BME280;63021;52.836;6.376;2022-12-07T08:19:22;101699.81;;;2.87;81.33
55456;BME280;63021;52.836;6.376;2022-12-07T08:21:47;101696.44;;;2.85;80.92
55456;BME280;63021;52.836;6.376;2022-12-07T08:24:13;101705.31;;;2.83;81.53
55456;BME280;63021;52.836;6.376;2022-12-07T08:26:39;101706.38;;;2.78;81.10
55456;BME280;63021;52.836;6.376;2022-12-07T08:29:04;101703.69;;;2.80;81.64
55456;BME280;63021;52.836;6.376;2022-12-07T08:31:30;101703.00;;;2.76;81.57
55456;BME280;63021;52.836;6.376;2022-12-07T08:33:55;101709.88;;;2.79;81.85
55456;BME280;63021;52.836;6.376;2022-12-07T08:36:22;101709.81;;;2.81;81.93
55456;BME280;63021;52.836;6.376;2022-12-07T08:38:48;101713.19;;;2.83;81.79
55456;BME280;63021;52.836;6.376;2022-12-07T08:41:13;101719.94;;;2.88;81.71
55456;BME280;63021;52.836;6.376;2022-12-07T08:43:38;101715.41;;;2.92;81.65
55456;BME280;63021;52.836;6.376;2022-12-07T08:46:14;101714.25;;;2.98;81.30
55456;BME280;63021;52.836;6.376;2022-12-07T08:48:51;101708.03;;;2.99;81.84
55456;BME280;63021;52.836;6.376;2022-12-07T08:51:18;101692.03;;;3.03;82.08
55456;BME280;63021;52.836;6.376;2022-12-07T08:53:45;101704.97;;;3.08;82.25
55456;BME280;63021;52.836;6.376;2022-12-07T08:56:10;101707.59;;;3.08;82.06
55456;BME280;63021;52.836;6.376;2022-12-07T08:58:37;101710.91;;;3.11;81.40
55456;BME280;63021;52.836;6.376;2022-12-07T09:01:03;101706.66;;;3.09;82.02
55456;BME280;63021;52.836;6.376;2022-12-07T09:03:30;101716.78;;;3.17;82.20
55456;BME280;63021;52.836;6.376;2022-12-07T09:05:55;101717.63;;;3.17;81.92
55456;BME280;63021;52.836;6.376;2022-12-07T09:08:22;101713.09;;;3.21;81.50
55456;BME280;63021;52.836;6.376;2022-12-07T09:10:50;101710.53;;;3.19;81.26
55456;BME280;63021;52.836;6.376;2022-12-07T09:13:15;101705.28;;;3.19;81.59
55456;BME280;63021;52.836;6.376;2022-12-07T09:15:41;101700.84;;;3.20;81.86
55456;BME280;63021;52.836;6.376;2022-12-07T09:18:06;101715.78;;;3.19;81.33
55456;BME280;63021;52.836;6.376;2022-12-07T09:20:32;101707.19;;;3.16;82.20
55456;BME280;63021;52.836;6.376;2022-12-07T09:22:57;101709.81;;;3.16;81.61
55456;BME280;63021;52.836;6.376;2022-12-07T09:25:22;101709.91;;;3.14;81.24
55456;BME280;63021;52.836;6.376;2022-12-07T09:27:48;101703.72;;;3.15;82.01
55456;BME280;63021;52.836;6.376;2022-12-07T09:30:13;101707.03;;;3.19;81.98
55456;BME280;63021;52.836;6.376;2022-12-07T09:32:39;101710.22;;;3.25;81.79
55456;BME280;63021;52.836;6.376;2022-12-07T09:35:04;101702.00;;;3.32;81.70
55456;BME280;63021;52.836;6.376;2022-12-07T09:37:30;101696.28;;;3.41;81.51
55456;BME280;63021;52.836;6.376;2022-12-07T09:40:00;101697.56;;;3.50;81.92
55456;BME280;63021;52.836;6.376;2022-12-07T09:42:48;101703.22;;;3.59;81.55
55456;BME280;63021;52.836;6.376;2022-12-07T09:45:20;101696.91;;;3.62;81.59
55456;BME280;63021;52.836;6.376;2022-12-07T09:47:46;101703.50;;;3.71;81.73
55456;BME280;63021;52.836;6.376;2022-12-07T09:50:15;101711.06;;;3.77;82.06
55456;BME280;63021;52.836;6.376;2022-12-07T09:52:42;101708.28;;;3.80;81.24
55456;BME280;63021;52.836;6.376;2022-12-07T09:55:13;101715.84;;;3.86;82.03
55456;BME280;63021;52.836;6.376;2022-12-07T09:57:39;101721.81;;;3.90;81.97
55456;BME280;63021;52.836;6.376;2022-12-07T10:00:14;101713.72;;;3.93;81.40
55456;BME280;63021;52.836;6.376;2022-12-07T10:02:42;101711.94;;;3.93;80.76
55456;BME280;63021;52.836;6.376;2022-12-07T10:05:18;101718.75;;;3.97;81.61
55456;BME280;63021;52.836;6.376;2022-12-07T10:07:45;101715.94;;;4.01;80.98
55456;BME280;63021;52.836;6.376;2022-12-07T10:10:18;101707.88;;;4.04;82.03
55456;BME280;63021;52.836;6.376;2022-12-07T10:13:05;101707.72;;;4.07;80.83
55456;BME280;63021;52.836;6.376;2022-12-07T10:21:21;101696.16;;;4.09;81.23
55456;BME280;63021;52.836;6.376;2022-12-07T10:24:20;101692.59;;;4.10;81.49
55456;BME280;63021;52.836;6.376;2022-12-07T10:26:54;101681.97;;;4.12;80.93
55456;BME280;63021;52.836;6.376;2022-12-07T10:32:28;101683.50;;;4.16;80.65
55456;BME280;63021;52.836;6.376;2022-12-07T10:37:47;101686.56;;;4.24;81.49
55456;BME280;63021;52.836;6.376;2022-12-07T10:40:34;101679.09;;;4.32;81.31
55456;BME280;63021;52.836;6.376;2022-12-07T10:43:18;101684.00;;;4.39;80.68
55456;BME280;63021;52.836;6.376;2022-12-07T10:53:52;101658.53;;;4.54;80.53
55456;BME280;63021;52.836;6.376;2022-12-07T11:02:21;101653.00;;;4.58;80.49
55456;BME280;63021;52.836;6.376;2022-12-07T11:05:19;101650.22;;;4.61;80.07
55456;BME280;63021;52.836;6.376;2022-12-07T11:13:28;101639.13;;;4.71;80.80
55456;BME280;63021;52.836;6.376;2022-12-07T11:18:36;101643.09;;;4.78;80.13
55456;BME280;63021;52.836;6.376;2022-12-07T11:21:25;101627.38;;;4.76;79.81
55456;BME280;63021;52.836;6.376;2022-12-07T11:24:04;101629.63;;;4.82;79.61
55456;BME280;63021;52.836;6.376;2022-12-07T11:37:32;101619.28;;;4.94;79.64
55456;BME280;63021;52.836;6.376;2022-12-07T11:40:13;101613.00;;;4.96;79.83
55456;BME280;63021;52.836;6.376;2022-12-07T11:42:44;101619.78;;;5.00;79.24
55456;BME280;63021;52.836;6.376;2022-12-07T11:45:19;101617.06;;;5.02;79.42
55456;BME280;63021;52.836;6.376;2022-12-07T11:47:53;101608.31;;;5.01;79.87
55456;BME280;63021;52.836;6.376;2022-12-07T11:55:56;101586.50;;;4.98;79.40
55456;BME280;63021;52.836;6.376;2022-12-07T12:01:17;101578.50;;;4.99;79.19
55456;BME280;63021;52.836;6.376;2022-12-07T12:03:50;101582.75;;;5.02;78.92
55456;BME280;63021;52.836;6.376;2022-12-07T12:06:16;101582.66;;;5.03;78.69
55456;BME280;63021;52.836;6.376;2022-12-07T12:08:55;101578.06;;;5.07;79.36
55456;BME280;63021;52.836;6.376;2022-12-07T12:16:49;101561.66;;;5.16;78.60
55456;BME280;63021;52.836;6.376;2022-12-07T12:19:25;101570.31;;;5.18;78.38
55456;BME280;63021;52.836;6.376;2022-12-07T12:21:57;101562.38;;;5.18;78.76
55456;BME280;63021;52.836;6.376;2022-12-07T12:24:28;101568.44;;;5.20;78.25
55456;BME280;63021;52.836;6.376;2022-12-07T12:27:04;101563.69;;;5.26;78.33
55456;BME280;63021;52.836;6.376;2022-12-07T12:29:33;101556.47;;;5.29;78.08
55456;BME280;63021;52.836;6.376;2022-12-07T12:32:22;101558.06;;;5.32;78.31
55456;BME280;63021;52.836;6.376;2022-12-07T12:37:55;101550.69;;;5.37;77.58
55456;BME280;63021;52.836;6.376;2022-12-07T12:42:51;101550.03;;;5.48;77.52
55456;BME280;63021;52.836;6.376;2022-12-07T12:45:21;101549.09;;;5.49;77.18
55456;BME280;63021;52.836;6.376;2022-12-07T12:47:55;101554.91;;;5.54;77.44
55456;BME280;63021;52.836;6.376;2022-12-07T12:50:21;101553.88;;;5.57;76.82
55456;BME280;63021;52.836;6.376;2022-12-07T12:52:51;101542.19;;;5.61;77.11
55456;BME280;63021;52.836;6.376;2022-12-07T12:55:18;101545.66;;;5.61;76.12
55456;BME280;63021;52.836;6.376;2022-12-07T12:58:21;101545.56;;;5.63;76.88
55456;BME280;63021;52.836;6.376;2022-12-07T13:00:38;101535.97;;;5.62;76.63
55456;BME280;63021;52.836;6.376;2022-12-07T13:03:04;101535.00;;;5.63;76.14
55456;BME280;63021;52.836;6.376;2022-12-07T13:05:30;101535.66;;;5.66;76.14
55456;BME280;63021;52.836;6.376;2022-12-07T13:10:44;101527.53;;;5.69;76.62
55456;BME280;63021;52.836;6.376;2022-12-07T13:15:51;101530.91;;;5.71;76.45
55456;BME280;63021;52.836;6.376;2022-12-07T13:28:40;101528.13;;;5.46;76.59
55456;BME280;63021;52.836;6.376;2022-12-07T13:31:14;101531.94;;;5.42;75.98
55456;BME280;63021;52.836;6.376;2022-12-07T13:33:43;101525.25;;;5.36;76.96
55456;BME280;63021;52.836;6.376;2022-12-07T13:36:20;101528.00;;;5.34;76.61
55456;BME280;63021;52.836;6.376;2022-12-07T13:38:55;101526.19;;;5.35;76.48
55456;BME280;63021;52.836;6.376;2022-12-07T13:41:30;101513.19;;;5.32;76.21
55456;BME280;63021;52.836;6.376;2022-12-07T13:44:13;101520.22;;;5.31;77.19
55456;BME280;63021;52.836;6.376;2022-12-07T13:49:30;101509.88;;;5.28;77.28
55456;BME280;63021;52.836;6.376;2022-12-07T13:54:48;101506.50;;;5.26;76.92
55456;BME280;63021;52.836;6.376;2022-12-07T13:57:16;101501.31;;;5.25;76.64
55456;BME280;63021;52.836;6.376;2022-12-07T13:59:42;101506.50;;;5.26;76.76
55456;BME280;63021;52.836;6.376;2022-12-07T14:02:32;101511.78;;;5.26;75.92
55456;BME280;63021;52.836;6.376;2022-12-07T14:10:40;101500.75;;;5.19;76.71
55456;BME280;63021;52.836;6.376;2022-12-07T14:15:53;101488.78;;;5.14;77.15
55456;BME280;63021;52.836;6.376;2022-12-07T14:18:45;101482.84;;;5.10;75.79
55456;BME280;63021;52.836;6.376;2022-12-07T14:23:37;101480.66;;;5.02;76.59
55456;BME280;63021;52.836;6.376;2022-12-07T14:28:39;101479.25;;;4.97;76.75
55456;BME280;63021;52.836;6.376;2022-12-07T14:31:11;101479.25;;;4.97;76.76
55456;BME280;63021;52.836;6.376;2022-12-07T14:33:37;101472.47;;;4.93;76.22
55456;BME280;63021;52.836;6.376;2022-12-07T14:36:03;101479.66;;;4.91;76.29
55456;BME280;63021;52.836;6.376;2022-12-07T14:38:28;101478.91;;;4.89;76.63
55456;BME280;63021;52.836;6.376;2022-12-07T14:40:54;101472.13;;;4.84;76.69
55456;BME280;63021;52.836;6.376;2022-12-07T14:43:40;101468.50;;;4.85;76.23
55456;BME280;63021;52.836;6.376;2022-12-07T14:46:05;101467.88;;;4.82;76.61
55456;BME280;63021;52.836;6.376;2022-12-07T14:48:30;101475.03;;;4.80;76.50
55456;BME280;63021;52.836;6.376;2022-12-07T14:50:56;101473.25;;;4.80;76.68
55456;BME280;63021;52.836;6.376;2022-12-07T14:53:27;101456.75;;;4.77;76.60
55456;BME280;63021;52.836;6.376;2022-12-07T14:55:54;101462.97;;;4.76;76.87
55456;BME280;63021;52.836;6.376;2022-12-07T14:58:20;101463.91;;;4.75;77.15
55456;BME280;63021;52.836;6.376;2022-12-07T15:00:45;101465.72;;;4.74;77.13
55456;BME280;63021;52.836;6.376;2022-12-07T15:03:12;101467.59;;;4.72;76.89
55456;BME280;63021;52.836;6.376;2022-12-07T15:05:38;101470.50;;;4.67;76.33
55456;BME280;63021;52.836;6.376;2022-12-07T15:08:04;101472.47;;;4.64;77.12
55456;BME280;63021;52.836;6.376;2022-12-07T15:10:33;101468.34;;;4.60;77.21
55456;BME280;63021;52.836;6.376;2022-12-07T15:13:00;101463.13;;;4.58;77.84
55456;BME280;63021;52.836;6.376;2022-12-07T15:15:44;101464.09;;;4.57;77.32
55456;BME280;63021;52.836;6.376;2022-12-07T15:18:10;101465.88;;;4.57;77.60
55456;BME280;63021;52.836;6.376;2022-12-07T15:20:35;101463.22;;;4.57;77.74
55456;BME280;63021;52.836;6.376;2022-12-07T15:23:00;101459.84;;;4.55;77.21
55456;BME280;63021;52.836;6.376;2022-12-07T15:25:26;101462.59;;;4.53;77.26
55456;BME280;63021;52.836;6.376;2022-12-07T15:27:51;101455.59;;;4.52;77.88
55456;BME280;63021;52.836;6.376;2022-12-07T15:30:16;101460.22;;;4.48;77.89
55456;BME280;63021;52.836;6.376;2022-12-07T15:32:42;101455.22;;;4.44;77.51